Keyser, West Virginia
Current Conditions -  °F | °C
As of 3:55 PM on Thursday 23 Oct 2014 (Local Time) from KCBE Reporting Station
Scattered Clouds Scattered Clouds  
Wind Chill: 63°   Ceiling: Unl
Heat Index: 63°   Visibility: 10mi
Dew Point: 41°   Wind: 17mph
Humidity: 45%   Direction: 330°NNW
Pressure: 29.99"   Gusts: 25mph
Location:  39.44°N, 78.98°W
Report Text: KCBE 231955Z AUTO 33015G22KT 10SM SCT055 17/05 A2999 RMK AO1
Loading
Personal Weather Stations






























Interactive Weather Map
Tropical Storm Tracking
New forecast layout! Learn more

10-Day Weather Forecast

Advertisements
Track Severe Weather on mobile